createdAt,value
2019-02-15T00:00:45.962Z,34.65
2019-02-15T00:01:53.565Z,32.88
2019-02-15T00:03:00.109Z,33.60
2019-02-15T00:04:06.186Z,32.42
2019-02-15T00:05:12.426Z,35.50
2019-02-15T00:06:18.599Z,36.17
2019-02-15T00:07:24.724Z,33.28
2019-02-15T00:08:30.639Z,36.03
2019-02-15T00:09:36.722Z,36.65
2019-02-15T00:10:43.284Z,36.42
2019-02-15T00:11:49.327Z,34.23
2019-02-15T00:12:55.394Z,37.03
2019-02-15T00:14:01.434Z,35.03
2019-02-15T00:15:07.525Z,36.33
2019-02-15T00:16:13.735Z,36.05
2019-02-15T00:17:37.760Z,37.05
2019-02-15T00:18:59.469Z,37.17
2019-02-15T00:20:08.144Z,35.68
2019-02-15T00:21:17.307Z,36.20
2019-02-15T00:22:23.776Z,37.15
2019-02-15T00:23:30.525Z,37.35
2019-02-15T00:24:36.747Z,36.85
2019-02-15T00:25:42.967Z,37.30
2019-02-15T00:26:49.218Z,37.10
2019-02-15T00:27:55.274Z,35.85
2019-02-15T00:29:01.530Z,37.48
2019-02-15T00:30:09.679Z,36.83
2019-02-15T00:31:18.420Z,37.48
2019-02-15T00:32:24.978Z,36.83
2019-02-15T00:33:31.058Z,36.80
2019-02-15T00:34:37.150Z,34.55
2019-02-15T00:35:43.248Z,33.92
2019-02-15T00:36:49.435Z,33.98
2019-02-15T00:37:55.608Z,34.05
2019-02-15T00:39:01.433Z,34.73
2019-02-15T00:40:09.117Z,33.75
2019-02-15T00:41:15.189Z,34.83
2019-02-15T00:42:21.209Z,35.03
2019-02-15T00:43:27.462Z,33.50
2019-02-15T00:44:34.712Z,35.13
2019-02-15T00:45:49.825Z,35.00
2019-02-15T00:47:23.925Z,33.50
2019-02-15T00:48:30.246Z,33.20
2019-02-15T00:50:10.764Z,33.00
2019-02-15T00:51:35.630Z,32.98
2019-02-15T00:53:03.517Z,32.42
2019-02-15T00:54:27.479Z,34.33
2019-02-15T00:55:55.546Z,34.10
2019-02-15T00:57:35.797Z,33.02
2019-02-15T00:59:01.211Z,34.33
2019-02-15T01:00:42.985Z,32.80
2019-02-15T01:01:58.865Z,33.33
2019-02-15T01:03:24.368Z,34.18
2019-02-15T01:04:58.269Z,32.60
2019-02-15T01:06:18.253Z,34.45
2019-02-15T01:07:50.608Z,32.23
2019-02-15T01:09:18.572Z,33.28
2019-02-15T01:10:46.432Z,35.45
2019-02-15T01:12:00.851Z,33.42
2019-02-15T01:13:18.920Z,33.70
2019-02-15T01:14:25.361Z,33.98
2019-02-15T01:15:31.568Z,33.30
2019-02-15T01:16:37.416Z,34.35
2019-02-15T01:17:43.508Z,34.63
2019-02-15T01:18:49.683Z,34.55
2019-02-15T01:19:55.895Z,35.25
2019-02-15T01:21:02.178Z,35.00
2019-02-15T01:22:08.488Z,35.33
2019-02-15T01:23:14.706Z,35.55
2019-02-15T01:24:20.758Z,35.20
2019-02-15T01:25:28.616Z,34.73
2019-02-15T01:27:00.157Z,36.42
2019-02-15T01:28:11.636Z,34.05
2019-02-15T01:29:33.235Z,34.92
2019-02-15T01:30:57.317Z,34.00
2019-02-15T01:32:21.284Z,32.80
2019-02-15T01:33:46.483Z,34.80
2019-02-15T01:35:10.452Z,34.75
2019-02-15T01:36:26.229Z,34.90
2019-02-15T01:37:38.535Z,34.78
2019-02-15T01:39:02.606Z,35.60
2019-02-15T01:40:27.688Z,34.65
2019-02-15T01:42:06.068Z,34.98
2019-02-15T01:43:40.335Z,34.25
2019-02-15T01:44:57.109Z,34.15
2019-02-15T01:46:19.438Z,35.17
2019-02-15T01:47:32.447Z,34.92
2019-02-15T01:48:38.728Z,35.78
2019-02-15T01:49:44.882Z,35.28
2019-02-15T01:50:51.019Z,35.90
2019-02-15T01:51:57.149Z,38.10
2019-02-15T01:53:03.605Z,37.53
2019-02-15T01:54:10.206Z,36.68
2019-02-15T01:55:16.124Z,36.55
2019-02-15T01:56:22.612Z,36.13
2019-02-15T01:57:28.765Z,37.55
2019-02-15T01:58:34.859Z,37.00
2019-02-15T01:59:41.052Z,33.78
2019-02-15T02:00:47.306Z,36.63
2019-02-15T02:01:53.441Z,37.88
2019-02-15T02:02:59.614Z,36.75
2019-02-15T02:04:06.826Z,37.40
2019-02-15T02:05:13.219Z,37.23
2019-02-15T02:06:19.391Z,36.68
2019-02-15T02:07:25.560Z,36.55
2019-02-15T02:08:33.177Z,36.58
2019-02-15T02:09:39.315Z,37.08
2019-02-15T02:10:45.520Z,37.48
2019-02-15T02:11:51.682Z,35.58
2019-02-15T02:12:57.829Z,36.83
2019-02-15T02:14:04.978Z,37.10
2019-02-15T02:15:11.875Z,37.48
2019-02-15T02:16:18.008Z,38.60
2019-02-15T02:17:24.069Z,37.40
2019-02-15T02:18:30.316Z,38.00
2019-02-15T02:19:36.602Z,37.42
2019-02-15T02:20:42.694Z,35.73
2019-02-15T02:21:48.899Z,36.73
2019-02-15T02:22:55.124Z,36.23
2019-02-15T02:24:01.392Z,36.08
2019-02-15T02:25:07.873Z,35.38
2019-02-15T02:26:14.071Z,35.78
2019-02-15T02:27:20.238Z,35.48
2019-02-15T02:28:26.505Z,34.15
2019-02-15T02:29:32.734Z,34.85
2019-02-15T02:30:39.286Z,33.65
2019-02-15T02:31:45.619Z,35.65
2019-02-15T02:32:51.808Z,33.00
2019-02-15T02:33:57.849Z,34.50
2019-02-15T02:35:04.231Z,33.98
2019-02-15T02:36:10.325Z,34.00
2019-02-15T02:37:16.419Z,34.23
2019-02-15T02:38:22.491Z,33.98
2019-02-15T02:39:29.696Z,32.70
2019-02-15T02:40:35.993Z,32.75
2019-02-15T02:41:42.408Z,34.30
2019-02-15T02:42:48.579Z,34.00
2019-02-15T02:43:59.715Z,34.03
2019-02-15T02:45:02.758Z,34.67
2019-02-15T02:46:09.003Z,32.83
2019-02-15T02:47:16.267Z,33.60
2019-02-15T02:48:22.564Z,34.00
2019-02-15T02:49:28.800Z,35.17
2019-02-15T02:50:35.137Z,34.70
2019-02-15T02:51:41.476Z,33.80
2019-02-15T02:52:47.674Z,34.08
2019-02-15T02:53:53.918Z,33.18
2019-02-15T02:55:00.034Z,33.45
2019-02-15T02:56:06.240Z,33.23
2019-02-15T02:57:12.457Z,35.13
2019-02-15T02:58:18.386Z,34.08
2019-02-15T02:59:24.504Z,33.78
2019-02-15T03:00:33.506Z,34.90
2019-02-15T03:01:38.273Z,32.90
2019-02-15T03:02:44.462Z,34.00
2019-02-15T03:03:50.485Z,33.90
2019-02-15T03:04:56.562Z,33.13
2019-02-15T03:06:02.601Z,34.33
2019-02-15T03:07:08.643Z,33.63
2019-02-15T03:08:14.908Z,33.15
2019-02-15T03:09:21.146Z,33.75
2019-02-15T03:10:27.367Z,32.50
2019-02-15T03:11:33.636Z,33.08
2019-02-15T03:12:39.812Z,33.75
2019-02-15T03:13:45.978Z,33.88
2019-02-15T03:14:52.077Z,34.90
2019-02-15T03:15:58.225Z,34.38
2019-02-15T03:17:05.427Z,33.83
2019-02-15T03:18:11.656Z,34.53
2019-02-15T03:19:17.906Z,33.45
2019-02-15T03:20:31.348Z,33.20
2019-02-15T03:21:31.989Z,31.70
2019-02-15T03:22:38.068Z,32.85
2019-02-15T03:23:43.776Z,34.23
2019-02-15T03:24:50.104Z,34.27
2019-02-15T03:25:56.451Z,33.58
2019-02-15T03:27:02.637Z,34.90
2019-02-15T03:28:08.757Z,33.13
2019-02-15T03:29:15.106Z,32.85
2019-02-15T03:30:21.380Z,33.48
2019-02-15T03:31:27.613Z,33.75
2019-02-15T03:32:34.088Z,35.03
2019-02-15T03:33:40.236Z,34.60
2019-02-15T03:34:46.483Z,33.90
2019-02-15T03:35:55.955Z,34.60
2019-02-15T03:37:20.564Z,33.10
2019-02-15T03:38:33.290Z,33.15
2019-02-15T03:39:42.869Z,31.80
2019-02-15T03:40:56.562Z,32.88
2019-02-15T03:42:03.125Z,33.15
2019-02-15T03:43:09.366Z,34.58
2019-02-15T03:44:22.293Z,35.80
2019-02-15T03:45:23.247Z,35.08
2019-02-15T03:46:29.571Z,34.27
2019-02-15T03:47:35.707Z,33.85
2019-02-15T03:48:41.832Z,32.78
2019-02-15T03:49:48.038Z,34.45
2019-02-15T03:50:55.282Z,34.10
2019-02-15T03:52:01.402Z,34.90
2019-02-15T03:53:07.510Z,34.75
2019-02-15T03:54:13.578Z,34.63
2019-02-15T03:55:19.814Z,35.65
2019-02-15T03:56:26.136Z,34.20
2019-02-15T03:57:32.235Z,32.95
2019-02-15T03:58:38.275Z,33.83
2019-02-15T03:59:44.632Z,34.90
2019-02-15T04:00:50.894Z,34.65
2019-02-15T04:01:57.016Z,34.92
2019-02-15T04:03:03.301Z,34.58
2019-02-15T04:04:09.706Z,34.50
2019-02-15T04:05:16.666Z,34.20
2019-02-15T04:06:22.815Z,34.48
2019-02-15T04:07:29.085Z,34.48
2019-02-15T04:08:35.157Z,34.75
2019-02-15T04:09:41.212Z,33.08
2019-02-15T04:10:47.272Z,34.58
2019-02-15T04:11:53.349Z,33.70
2019-02-15T04:12:59.489Z,35.00
2019-02-15T04:14:05.526Z,35.13
2019-02-15T04:15:11.678Z,34.13
2019-02-15T04:16:17.970Z,35.00
2019-02-15T04:17:24.084Z,35.85
2019-02-15T04:18:30.410Z,34.92
2019-02-15T04:19:36.692Z,35.45
2019-02-15T04:20:42.609Z,34.45
2019-02-15T04:21:48.883Z,35.68
2019-02-15T04:22:55.128Z,36.58
2019-02-15T04:24:01.359Z,33.67
2019-02-15T04:25:07.637Z,34.65
2019-02-15T04:26:14.094Z,36.25
2019-02-15T04:27:20.252Z,35.85
2019-02-15T04:28:27.089Z,33.28
2019-02-15T04:29:33.422Z,34.90
2019-02-15T04:30:39.496Z,34.25
2019-02-15T04:31:45.750Z,34.13
2019-02-15T04:32:51.906Z,36.30
2019-02-15T04:33:58.066Z,34.43
2019-02-15T04:35:04.070Z,36.23
2019-02-15T04:36:10.108Z,33.18
2019-02-15T04:37:16.412Z,34.83
2019-02-15T04:38:22.550Z,37.17
2019-02-15T04:39:28.688Z,35.35
2019-02-15T04:40:35.115Z,35.20
2019-02-15T04:41:41.339Z,35.08
2019-02-15T04:42:47.580Z,35.00
2019-02-15T04:43:53.805Z,36.10
2019-02-15T04:45:00.097Z,34.60
2019-02-15T04:46:06.624Z,34.45
2019-02-15T04:47:12.685Z,33.48
2019-02-15T04:48:19.068Z,34.78
2019-02-15T04:49:25.301Z,35.23
2019-02-15T04:50:31.445Z,36.88
2019-02-15T04:51:37.657Z,35.88
2019-02-15T04:52:43.742Z,35.75
2019-02-15T04:53:50.088Z,32.83
2019-02-15T04:54:56.355Z,34.80
2019-02-15T04:56:02.420Z,35.08
2019-02-15T04:57:08.641Z,34.85
2019-02-15T04:58:14.802Z,35.40
2019-02-15T04:59:20.705Z,34.65
2019-02-15T05:00:26.786Z,35.50
2019-02-15T05:01:32.948Z,34.58
2019-02-15T05:02:39.146Z,34.78
2019-02-15T05:03:45.379Z,34.38
2019-02-15T05:04:51.486Z,34.45
2019-02-15T05:05:57.648Z,33.35
2019-02-15T05:07:03.750Z,34.48
2019-02-15T05:08:09.811Z,34.33
2019-02-15T05:09:16.007Z,33.15
2019-02-15T05:10:22.136Z,33.33
2019-02-15T05:11:28.310Z,33.65
2019-02-15T05:12:34.356Z,33.78
2019-02-15T05:13:40.598Z,34.15
2019-02-15T05:14:52.988Z,33.83
2019-02-15T05:15:54.744Z,34.38
2019-02-15T05:17:00.906Z,32.65
2019-02-15T05:18:07.048Z,32.00
2019-02-15T05:19:13.251Z,33.33
2019-02-15T05:20:19.542Z,33.28
2019-02-15T05:21:25.816Z,33.48
2019-02-15T05:22:31.973Z,34.15
2019-02-15T05:23:38.245Z,33.45
2019-02-15T05:24:44.344Z,32.50
2019-02-15T05:25:50.430Z,32.33
2019-02-15T05:26:56.497Z,32.80
2019-02-15T05:28:02.527Z,33.80
2019-02-15T05:29:08.757Z,32.78
2019-02-15T05:30:15.100Z,33.53
2019-02-15T05:31:21.208Z,34.08
2019-02-15T05:32:27.214Z,32.50
2019-02-15T05:33:35.588Z,31.55
2019-02-15T05:34:41.207Z,32.85
2019-02-15T05:35:47.466Z,35.05
2019-02-15T05:36:53.669Z,33.60
2019-02-15T05:37:59.889Z,32.28
2019-02-15T05:39:08.132Z,33.00
2019-02-15T05:40:14.284Z,33.38
2019-02-15T05:41:20.490Z,35.50
2019-02-15T05:42:27.001Z,32.15
2019-02-15T05:43:33.071Z,33.70
2019-02-15T05:44:39.504Z,32.42
2019-02-15T05:45:45.541Z,33.83
2019-02-15T05:46:51.686Z,32.70
2019-02-15T05:47:57.808Z,33.63
2019-02-15T05:49:03.800Z,33.80
2019-02-15T05:50:09.950Z,33.42
2019-02-15T05:51:15.985Z,32.58
2019-02-15T05:52:22.134Z,33.33
2019-02-15T05:53:28.437Z,34.20
2019-02-15T05:54:34.310Z,32.67
2019-02-15T05:55:40.659Z,33.15
2019-02-15T05:56:46.836Z,33.33
2019-02-15T05:57:53.176Z,32.67
2019-02-15T05:58:59.343Z,33.18
2019-02-15T06:00:06.256Z,34.65
2019-02-15T06:01:12.712Z,32.93
2019-02-15T06:02:18.705Z,34.23
2019-02-15T06:03:24.859Z,34.40
2019-02-15T06:04:30.917Z,34.05
2019-02-15T06:05:36.978Z,34.67
2019-02-15T06:06:43.016Z,34.90
2019-02-15T06:07:49.068Z,35.03
2019-02-15T06:08:55.295Z,35.95
2019-02-15T06:10:01.374Z,34.48
2019-02-15T06:11:08.401Z,35.48
2019-02-15T06:12:14.784Z,34.95
2019-02-15T06:13:21.027Z,34.05
2019-02-15T06:14:27.335Z,34.88
2019-02-15T06:15:33.485Z,35.98
2019-02-15T06:16:39.677Z,35.95
2019-02-15T06:17:45.969Z,36.80
2019-02-15T06:18:52.287Z,37.95
2019-02-15T06:19:58.531Z,38.30
2019-02-15T06:21:04.520Z,38.00
2019-02-15T06:22:10.754Z,38.13
2019-02-15T06:23:17.017Z,38.65
2019-02-15T06:24:23.250Z,40.70
2019-02-15T06:25:29.408Z,39.50
2019-02-15T06:26:35.560Z,39.03
2019-02-15T06:27:41.901Z,38.92
2019-02-15T06:28:48.084Z,39.15
2019-02-15T06:29:54.265Z,38.55
2019-02-15T06:31:00.369Z,37.93
2019-02-15T06:32:06.514Z,37.93
2019-02-15T06:33:12.605Z,37.45
2019-02-15T06:34:18.725Z,37.75
2019-02-15T06:35:24.942Z,36.95
2019-02-15T06:36:34.929Z,34.30
2019-02-15T06:37:41.203Z,37.35
2019-02-15T06:38:47.332Z,36.20
2019-02-15T06:39:53.673Z,36.50
2019-02-15T06:40:59.634Z,35.95
2019-02-15T06:42:06.168Z,36.42
2019-02-15T06:43:12.212Z,35.63
2019-02-15T06:44:18.376Z,36.85
2019-02-15T06:45:25.561Z,34.50
2019-02-15T06:46:32.004Z,35.63
2019-02-15T06:47:38.063Z,35.10
2019-02-15T06:48:44.207Z,37.58
2019-02-15T06:49:50.152Z,35.73
2019-02-15T06:50:56.359Z,36.98
2019-02-15T06:52:02.407Z,37.00
2019-02-15T06:53:09.925Z,36.88
2019-02-15T06:54:16.555Z,38.02
2019-02-15T06:55:22.640Z,37.05
2019-02-15T06:56:28.722Z,38.53
2019-02-15T06:57:34.937Z,38.13
2019-02-15T06:58:52.652Z,37.00
2019-02-15T07:00:26.765Z,38.20
2019-02-15T07:01:47.869Z,36.30
2019-02-15T07:03:01.989Z,37.25
2019-02-15T07:04:18.099Z,37.05
2019-02-15T07:05:26.082Z,37.33
2019-02-15T07:06:32.579Z,39.40
2019-02-15T07:07:38.725Z,39.05
2019-02-15T07:08:44.864Z,40.08
2019-02-15T07:09:51.224Z,39.85
2019-02-15T07:10:57.451Z,38.83
2019-02-15T07:12:03.600Z,38.90
2019-02-15T07:13:09.766Z,38.83
2019-02-15T07:14:16.028Z,38.85
2019-02-15T07:15:22.326Z,38.08
2019-02-15T07:16:28.432Z,38.23
2019-02-15T07:17:34.284Z,36.58
2019-02-15T07:18:40.497Z,38.70
2019-02-15T07:19:46.750Z,39.03
2019-02-15T07:20:55.994Z,36.95
2019-02-15T07:22:02.056Z,37.65
2019-02-15T07:23:08.317Z,38.42
2019-02-15T07:24:14.595Z,38.13
2019-02-15T07:25:20.622Z,38.65
2019-02-15T07:26:26.934Z,37.05
2019-02-15T07:27:33.188Z,35.98
2019-02-15T07:28:39.145Z,36.90
2019-02-15T07:29:45.298Z,36.05
2019-02-15T07:30:51.347Z,36.23
2019-02-15T07:31:57.412Z,36.88
2019-02-15T07:33:03.576Z,36.63
2019-02-15T07:34:09.641Z,36.17
2019-02-15T07:35:15.712Z,36.23
2019-02-15T07:36:21.719Z,36.88
2019-02-15T07:37:27.767Z,37.33
2019-02-15T07:38:33.839Z,34.95
2019-02-15T07:39:39.931Z,35.28
2019-02-15T07:40:46.122Z,36.55
2019-02-15T07:41:52.357Z,36.95
2019-02-15T07:42:58.119Z,36.58
2019-02-15T07:44:04.335Z,34.38
2019-02-15T07:45:10.596Z,36.17
2019-02-15T07:46:16.777Z,36.80
2019-02-15T07:47:22.909Z,34.27
2019-02-15T07:48:28.698Z,35.95
2019-02-15T07:49:34.878Z,34.27
2019-02-15T07:50:41.047Z,37.35
2019-02-15T07:51:47.201Z,33.85
2019-02-15T07:52:53.544Z,35.17
2019-02-15T07:53:59.783Z,35.15
2019-02-15T07:55:06.601Z,33.63
2019-02-15T07:56:12.536Z,33.40
2019-02-15T07:57:18.838Z,34.40
2019-02-15T07:58:25.036Z,33.02
2019-02-15T07:59:31.139Z,31.30
2019-02-15T08:00:37.301Z,32.48
2019-02-15T08:01:43.641Z,32.05
2019-02-15T08:02:49.843Z,33.42
2019-02-15T08:03:55.985Z,31.55
2019-02-15T08:05:02.142Z,32.60
2019-02-15T08:06:08.301Z,32.63
2019-02-15T08:07:14.526Z,31.85
2019-02-15T08:08:20.661Z,31.37
2019-02-15T08:09:26.398Z,32.23
2019-02-15T08:10:34.179Z,32.70
2019-02-15T08:11:40.365Z,31.82
2019-02-15T08:12:46.726Z,30.43
2019-02-15T08:13:52.766Z,30.57
2019-02-15T08:14:58.846Z,30.50
2019-02-15T08:16:04.955Z,30.08
2019-02-15T08:17:11.112Z,31.30
2019-02-15T08:18:17.224Z,30.68
2019-02-15T08:19:24.326Z,30.62
2019-02-15T08:20:30.606Z,29.20
2019-02-15T08:21:36.705Z,27.17
2019-02-15T08:22:43.031Z,27.82
2019-02-15T08:23:49.436Z,29.60
2019-02-15T08:24:55.637Z,27.20
2019-02-15T08:26:01.919Z,27.60
2019-02-15T08:27:08.112Z,26.85
2019-02-15T08:28:15.350Z,27.30
2019-02-15T08:29:21.720Z,27.40
2019-02-15T08:30:27.896Z,26.70
2019-02-15T08:31:34.050Z,25.55
2019-02-15T08:32:40.218Z,26.40
2019-02-15T08:33:46.231Z,26.55
2019-02-15T08:34:52.146Z,28.00
2019-02-15T08:35:58.322Z,26.10
2019-02-15T08:37:04.500Z,25.90
2019-02-15T08:38:10.687Z,25.17
2019-02-15T08:39:16.999Z,26.87
2019-02-15T08:40:23.247Z,25.37
2019-02-15T08:41:29.325Z,25.68
2019-02-15T08:42:35.634Z,24.07
2019-02-15T08:43:41.641Z,24.90
2019-02-15T08:44:47.934Z,23.38
2019-02-15T08:46:00.537Z,24.45
2019-02-15T08:47:01.702Z,25.25
2019-02-15T08:48:08.974Z,23.62
2019-02-15T08:49:15.159Z,26.42
2019-02-15T08:50:21.285Z,24.37
2019-02-15T08:51:27.675Z,23.83
2019-02-15T08:52:33.896Z,21.50
2019-02-15T08:53:40.663Z,22.60
2019-02-15T08:54:46.974Z,23.77
2019-02-15T08:55:53.044Z,24.98
2019-02-15T08:56:59.509Z,22.48
2019-02-15T08:58:05.758Z,22.62
2019-02-15T08:59:12.486Z,24.18
2019-02-15T09:00:18.341Z,24.05
2019-02-15T09:01:24.445Z,22.40
2019-02-15T09:02:30.625Z,22.80
2019-02-15T09:03:36.875Z,22.48
2019-02-15T09:04:42.889Z,22.10
2019-02-15T09:05:49.019Z,22.82
2019-02-15T09:06:55.240Z,23.22
2019-02-15T09:08:01.314Z,24.00
2019-02-15T09:09:07.802Z,22.25
2019-02-15T09:10:14.235Z,22.25
2019-02-15T09:11:20.396Z,22.15
2019-02-15T09:12:26.850Z,23.30
2019-02-15T09:13:33.088Z,22.82
2019-02-15T09:14:39.235Z,21.35
2019-02-15T09:15:45.493Z,23.10
2019-02-15T09:16:51.548Z,22.90
2019-02-15T09:17:57.596Z,24.80
2019-02-15T09:19:03.751Z,23.18
2019-02-15T09:20:10.802Z,23.07
2019-02-15T09:21:16.957Z,23.35
2019-02-15T09:22:23.344Z,22.82
2019-02-15T09:23:29.608Z,23.02
2019-02-15T09:24:35.742Z,23.32
2019-02-15T09:25:41.964Z,22.95
2019-02-15T09:26:49.247Z,25.08
2019-02-15T09:28:15.533Z,24.05
2019-02-15T09:29:21.756Z,21.57
2019-02-15T09:30:28.012Z,22.22
2019-02-15T09:31:34.311Z,23.22
2019-02-15T09:32:40.784Z,22.27
2019-02-15T09:33:46.960Z,22.48
2019-02-15T09:34:54.056Z,22.07
2019-02-15T09:36:00.399Z,22.32
2019-02-15T09:37:06.745Z,22.50
2019-02-15T09:38:13.008Z,22.73
2019-02-15T09:39:19.308Z,23.25
2019-02-15T09:40:25.390Z,23.25
2019-02-15T09:41:31.765Z,22.15
2019-02-15T09:42:37.935Z,21.68
2019-02-15T09:43:44.056Z,23.52
2019-02-15T09:44:50.206Z,22.67
2019-02-15T09:45:56.284Z,23.10
2019-02-15T09:47:02.468Z,25.32
2019-02-15T09:48:08.569Z,22.55
2019-02-15T09:49:15.800Z,22.65
2019-02-15T09:50:22.064Z,23.50
2019-02-15T09:51:28.652Z,23.35
2019-02-15T09:52:34.867Z,23.55
2019-02-15T09:53:42.176Z,23.38
2019-02-15T09:54:48.528Z,22.48
2019-02-15T09:55:54.801Z,22.50
2019-02-15T09:57:01.052Z,24.55
2019-02-15T09:58:08.391Z,24.47
2019-02-15T09:59:14.599Z,24.67
2019-02-15T10:00:20.871Z,24.43
2019-02-15T10:01:27.174Z,24.63
2019-02-15T10:02:33.275Z,23.77
2019-02-15T10:03:40.494Z,26.23
2019-02-15T10:04:47.145Z,25.02
2019-02-15T10:05:53.365Z,24.80
2019-02-15T10:06:59.417Z,25.68
2019-02-15T10:08:05.585Z,25.48
2019-02-15T10:09:11.836Z,25.95
2019-02-15T10:10:17.968Z,26.20
2019-02-15T10:11:24.168Z,26.33
2019-02-15T10:12:30.182Z,25.57
2019-02-15T10:13:36.268Z,27.85
2019-02-15T10:14:42.775Z,26.20
2019-02-15T10:15:48.826Z,24.95
2019-02-15T10:16:54.860Z,27.22
2019-02-15T10:18:01.163Z,26.55
2019-02-15T10:19:07.322Z,26.87
2019-02-15T10:20:13.725Z,26.70
2019-02-15T10:21:19.887Z,27.93
2019-02-15T10:22:26.026Z,28.10
2019-02-15T10:23:32.154Z,25.08
2019-02-15T10:24:38.044Z,27.13
2019-02-15T10:25:45.394Z,26.60
2019-02-15T10:26:51.644Z,28.17
2019-02-15T10:27:57.948Z,26.70
2019-02-15T10:29:04.145Z,27.95
2019-02-15T10:30:11.281Z,29.02
2019-02-15T10:31:17.502Z,28.98
2019-02-15T10:32:23.777Z,27.98
2019-02-15T10:33:30.033Z,28.65
2019-02-15T10:34:36.475Z,28.57
2019-02-15T10:35:42.708Z,30.08
2019-02-15T10:36:48.806Z,28.00
2019-02-15T10:37:55.147Z,28.25
2019-02-15T10:39:01.518Z,29.45
2019-02-15T10:40:07.884Z,30.00
2019-02-15T10:41:14.088Z,28.30
2019-02-15T10:42:20.248Z,28.95
2019-02-15T10:43:26.418Z,29.30
2019-02-15T10:44:32.627Z,29.63
2019-02-15T10:45:38.781Z,29.90
2019-02-15T10:46:44.885Z,29.92
2019-02-15T10:47:51.162Z,28.80
2019-02-15T10:48:57.238Z,28.90
2019-02-15T10:50:05.092Z,29.55
2019-02-15T10:51:11.165Z,26.65
2019-02-15T10:52:17.265Z,27.50
2019-02-15T10:53:23.514Z,26.62
2019-02-15T10:54:29.768Z,28.07
2019-02-15T10:55:38.026Z,29.02
2019-02-15T10:56:43.808Z,28.35
2019-02-15T10:57:50.077Z,27.80
2019-02-15T10:58:56.244Z,30.02
2019-02-15T11:00:02.508Z,28.10
2019-02-15T11:01:08.549Z,31.25
2019-02-15T11:02:14.780Z,28.42
2019-02-15T11:03:21.401Z,28.57
2019-02-15T11:04:27.519Z,27.40
2019-02-15T11:05:33.535Z,28.50
2019-02-15T11:06:39.643Z,27.93
2019-02-15T11:07:46.541Z,29.82
2019-02-15T11:08:52.714Z,27.20
2019-02-15T11:09:58.971Z,28.80
2019-02-15T11:11:05.230Z,27.13
2019-02-15T11:12:11.406Z,26.70
2019-02-15T11:13:17.773Z,28.85
2019-02-15T11:14:24.150Z,29.67
2019-02-15T11:15:30.064Z,28.45
2019-02-15T11:16:36.303Z,26.35
2019-02-15T11:17:42.354Z,27.95
2019-02-15T11:18:48.656Z,27.48
2019-02-15T11:19:54.858Z,28.52
2019-02-15T11:21:03.055Z,29.18
2019-02-15T11:22:09.364Z,28.75
2019-02-15T11:23:15.622Z,28.50
2019-02-15T11:24:21.874Z,29.32
2019-02-15T11:25:27.963Z,30.68
2019-02-15T11:26:34.096Z,29.35
2019-02-15T11:27:40.077Z,29.37
2019-02-15T11:28:46.468Z,29.40
2019-02-15T11:29:52.697Z,27.62
2019-02-15T11:30:58.897Z,28.27
2019-02-15T11:32:05.283Z,28.62
2019-02-15T11:33:11.617Z,28.20
2019-02-15T11:34:18.037Z,29.30
2019-02-15T11:35:24.130Z,29.67
2019-02-15T11:36:30.186Z,29.18
2019-02-15T11:37:36.476Z,29.15
2019-02-15T11:38:42.507Z,29.20
2019-02-15T11:39:48.739Z,28.77
2019-02-15T11:40:55.039Z,28.90
2019-02-15T11:42:01.337Z,29.98
2019-02-15T11:43:07.626Z,28.23
2019-02-15T11:44:13.738Z,29.92
2019-02-15T11:45:19.945Z,28.47
2019-02-15T11:46:26.048Z,27.15
2019-02-15T11:47:32.307Z,26.70
2019-02-15T11:48:38.526Z,27.75
2019-02-15T11:49:45.003Z,28.55
2019-02-15T11:50:51.322Z,29.50
2019-02-15T11:51:57.582Z,28.83
2019-02-15T11:53:03.810Z,27.20
2019-02-15T11:54:10.022Z,30.50
2019-02-15T11:55:16.465Z,30.20
2019-02-15T11:56:22.670Z,29.82
2019-02-15T11:57:29.905Z,32.00
2019-02-15T11:58:36.086Z,30.37
2019-02-15T11:59:42.285Z,29.02
2019-02-15T12:00:48.501Z,28.47
2019-02-15T12:01:54.576Z,28.98
2019-02-15T12:03:00.774Z,30.70
2019-02-15T12:04:07.034Z,29.95
2019-02-15T12:05:13.197Z,28.83
2019-02-15T12:06:19.261Z,29.27
2019-02-15T12:07:25.554Z,29.57
2019-02-15T12:08:31.648Z,28.80
2019-02-15T12:09:37.785Z,28.90
2019-02-15T12:10:44.022Z,27.95
2019-02-15T12:11:50.417Z,30.17
2019-02-15T12:12:56.467Z,27.85
2019-02-15T12:14:02.585Z,30.02
2019-02-15T12:15:09.045Z,29.85
2019-02-15T12:16:15.305Z,28.77
2019-02-15T12:17:21.588Z,29.57
2019-02-15T12:18:27.664Z,29.60
2019-02-15T12:19:33.666Z,28.42
2019-02-15T12:20:40.011Z,28.42
2019-02-15T12:21:46.395Z,30.30
2019-02-15T12:22:52.694Z,30.23
2019-02-15T12:23:59.010Z,30.30
2019-02-15T12:25:05.250Z,29.90
2019-02-15T12:26:11.491Z,29.52
2019-02-15T12:27:17.918Z,29.85
2019-02-15T12:28:24.196Z,29.45
2019-02-15T12:29:30.540Z,30.40
2019-02-15T12:30:36.781Z,31.00
2019-02-15T12:31:42.711Z,30.90
2019-02-15T12:32:48.889Z,32.25
2019-02-15T12:33:55.118Z,31.65
2019-02-15T12:35:01.385Z,31.50
2019-02-15T12:36:07.745Z,32.25
2019-02-15T12:37:13.840Z,31.30
2019-02-15T12:38:20.178Z,32.88
2019-02-15T12:39:26.492Z,32.90
2019-02-15T12:40:32.832Z,32.90
2019-02-15T12:41:39.117Z,32.55
2019-02-15T12:42:45.457Z,32.38
2019-02-15T12:43:51.585Z,33.85
2019-02-15T12:44:57.898Z,33.67
2019-02-15T12:46:04.074Z,33.63
2019-02-15T12:47:15.076Z,34.13
2019-02-15T12:48:17.964Z,34.63
2019-02-15T12:49:24.307Z,35.55
2019-02-15T12:50:31.488Z,34.85
2019-02-15T12:51:37.650Z,35.65
2019-02-15T12:52:43.899Z,32.80
2019-02-15T12:53:50.073Z,33.33
2019-02-15T12:54:56.349Z,35.90
2019-02-15T12:56:02.556Z,33.15
2019-02-15T12:57:08.665Z,34.15
2019-02-15T12:58:14.994Z,34.90
2019-02-15T12:59:21.283Z,35.48
2019-02-15T13:00:27.487Z,33.45
2019-02-15T13:01:33.607Z,34.33
2019-02-15T13:02:39.947Z,34.00
2019-02-15T13:03:46.226Z,35.95
2019-02-15T13:04:52.400Z,35.38
2019-02-15T13:05:58.606Z,36.05
2019-02-15T13:07:04.812Z,36.75
2019-02-15T13:08:11.133Z,34.10
2019-02-15T13:09:17.632Z,32.67
2019-02-15T13:10:26.260Z,34.25
2019-02-15T13:11:32.636Z,34.25
2019-02-15T13:12:38.901Z,33.78
2019-02-15T13:13:45.186Z,34.43
2019-02-15T13:14:51.423Z,33.60
2019-02-15T13:15:57.822Z,35.98
2019-02-15T13:17:04.108Z,35.95
2019-02-15T13:18:10.350Z,36.50
2019-02-15T13:19:16.550Z,36.80
2019-02-15T13:20:22.802Z,36.83
2019-02-15T13:21:29.016Z,37.25
2019-02-15T13:22:35.223Z,38.58
2019-02-15T13:23:41.353Z,37.10
2019-02-15T13:24:47.516Z,36.77
2019-02-15T13:25:53.642Z,38.40
2019-02-15T13:26:59.752Z,38.13
2019-02-15T13:28:06.288Z,37.33
2019-02-15T13:29:12.665Z,38.00
2019-02-15T13:30:18.974Z,39.38
2019-02-15T13:31:25.381Z,38.95
2019-02-15T13:32:31.736Z,39.80
2019-02-15T13:33:37.962Z,37.75
2019-02-15T13:34:43.945Z,39.27
2019-02-15T13:35:50.113Z,39.18
2019-02-15T13:36:56.957Z,39.00
2019-02-15T13:38:03.344Z,41.92
2019-02-15T13:39:10.957Z,40.73
2019-02-15T13:40:17.163Z,42.65
2019-02-15T13:41:24.779Z,39.53
2019-02-15T13:42:31.163Z,40.08
2019-02-15T13:43:37.457Z,39.30
2019-02-15T13:44:43.802Z,41.35
2019-02-15T13:45:49.984Z,43.50
2019-02-15T13:46:56.137Z,43.08
2019-02-15T13:48:02.357Z,41.90
2019-02-15T13:49:08.449Z,45.65
2019-02-15T13:50:14.832Z,43.95
2019-02-15T13:51:21.125Z,43.75
2019-02-15T13:52:27.396Z,42.25
2019-02-15T13:53:33.570Z,46.05
2019-02-15T13:54:39.768Z,46.08
2019-02-15T13:55:45.967Z,46.65
2019-02-15T13:56:52.413Z,49.50
2019-02-15T13:57:59.062Z,46.58
2019-02-15T13:59:05.372Z,46.80
2019-02-15T14:00:12.324Z,45.80
2019-02-15T14:01:18.591Z,45.95
2019-02-15T14:02:24.857Z,46.73
2019-02-15T14:03:32.790Z,47.38
2019-02-15T14:04:39.252Z,46.68
2019-02-15T14:05:45.415Z,46.00
2019-02-15T14:06:56.098Z,45.00
2019-02-15T14:08:02.935Z,43.92
2019-02-15T14:09:09.886Z,45.67
2019-02-15T14:10:16.161Z,46.68
2019-02-15T14:11:22.317Z,47.00
2019-02-15T14:12:28.671Z,44.73
2019-02-15T14:13:35.012Z,46.10
2019-02-15T14:14:41.334Z,44.67
2019-02-15T14:15:47.507Z,45.83
2019-02-15T14:16:53.763Z,46.80
2019-02-15T14:18:00.059Z,46.30
2019-02-15T14:19:06.126Z,45.03
2019-02-15T14:20:13.648Z,45.20
2019-02-15T14:21:19.879Z,42.60
2019-02-15T14:22:26.126Z,45.65
2019-02-15T14:23:32.304Z,43.90
2019-02-15T14:24:38.914Z,44.38
2019-02-15T14:25:45.237Z,42.30
2019-02-15T14:26:51.880Z,43.90
2019-02-15T14:27:58.066Z,40.85